Time;durP1;ratioP1;P1;durP2;ratioP2;P2;SDS_P1;SDS_P2;PMS_P1;PMS_P2;Temp;Humidity;BMP_temperature;BMP_pressure;BME280_temperature;BME280_humidity;BME280_pressure;Samples;Min_cycle;Max_cycle;Signal;HPM_P1;HPM_P2
2023/05/18 00:00:36;;;;;;;6.68;6.05;;;11.10;47.20;;;;;;20541;6765;293032;-75
2023/05/18 00:03:12;;;;;;;8.83;6.40;;;11.10;47.20;;;;;;20805;6753;132631;-75
2023/05/18 00:05:48;;;;;;;7.22;6.60;;;10.90;47.50;;;;;;20535;6781;337317;-75
2023/05/18 00:08:23;;;;;;;7.67;6.97;;;10.90;47.30;;;;;;20618;6751;279788;-76
2023/05/18 00:10:58;;;;;;;7.00;6.40;;;11.10;46.70;;;;;;20543;6748;278730;-76
2023/05/18 00:13:34;;;;;;;7.53;6.90;;;11.30;46.50;;;;;;20689;6733;299254;-75
2023/05/18 00:16:14;;;;;;;7.47;6.87;;;11.40;45.90;;;;;;20646;6749;306571;-75
2023/05/18 00:18:53;;;;;;;6.90;6.30;;;11.40;45.90;;;;;;20570;6772;277226;-78
2023/05/18 00:21:29;;;;;;;6.90;6.37;;;11.40;45.90;;;;;;20512;6753;336782;-75
2023/05/18 00:24:01;;;;;;;7.20;6.50;;;11.40;45.60;;;;;;20630;6753;337275;-76
2023/05/18 00:26:40;;;;;;;6.57;5.97;;;11.40;45.50;;;;;;20886;6739;119917;-78
2023/05/18 00:29:20;;;;;;;6.40;5.30;;;11.00;46.00;;;;;;20883;6733;117169;-77
2023/05/18 00:31:53;;;;;;;5.90;5.37;;;10.50;46.90;;;;;;20639;6775;118134;-76
2023/05/18 00:34:29;;;;;;;7.10;6.47;;;10.10;47.60;;;;;;20609;6758;340684;-76
2023/05/18 00:37:06;;;;;;;7.27;5.90;;;10.20;47.90;;;;;;20861;6742;117357;-75
2023/05/18 00:39:42;;;;;;;6.00;5.40;;;10.10;48.00;;;;;;20926;6727;116856;-76
2023/05/18 00:42:17;;;;;;;7.05;6.55;;;9.90;49.50;;;;;;20542;6727;344143;-76
2023/05/18 00:44:54;;;;;;;6.60;5.83;;;10.00;48.30;;;;;;20872;6746;116770;-75
2023/05/18 00:47:31;;;;;;;6.70;6.00;;;9.90;49.20;;;;;;20854;6743;123136;-75
2023/05/18 00:50:09;;;;;;;6.00;5.50;;;9.50;50.10;;;;;;20939;6724;117720;-75
2023/05/18 00:52:47;;;;;;;7.40;6.80;;;9.50;50.10;;;;;;20728;6724;280404;-75
2023/05/18 00:55:20;;;;;;;7.13;6.43;;;9.70;50.10;;;;;;20812;6766;116646;-80
2023/05/18 00:57:55;;;;;;;6.13;5.63;;;9.70;50.00;;;;;;20915;6729;116734;-75
2023/05/18 01:00:32;;;;;;;6.03;5.53;;;9.50;50.40;;;;;;20856;6736;116833;-75
2023/05/18 01:03:09;;;;;;;7.77;5.43;;;9.40;50.80;;;;;;20875;6737;120422;-75
2023/05/18 01:05:42;;;;;;;7.43;6.82;;;9.30;51.10;;;;;;20679;6737;334532;-75
2023/05/18 01:08:18;;;;;;;6.20;5.67;;;9.60;50.60;;;;;;20866;6751;117310;-75
2023/05/18 01:10:53;;;;;;;7.62;6.75;;;9.70;50.40;;;;;;20594;6742;309977;-75
2023/05/18 01:13:33;;;;;;;7.75;6.85;;;9.90;49.70;;;;;;20575;6760;296125;-77
2023/05/18 01:16:09;;;;;;;7.47;6.78;;;10.30;48.00;;;;;;20585;6766;306356;-75
2023/05/18 01:19:00;;;;;;;8.60;6.40;;;10.70;47.40;;;;;;20822;6766;116823;-75
2023/05/18 01:21:45;;;;;;;6.30;5.70;;;10.50;47.70;;;;;;20200;6878;117966;-76
2023/05/18 01:24:44;;;;;;;7.13;6.50;;;9.90;50.00;;;;;;20848;6751;116812;-77
2023/05/18 01:27:23;;;;;;;6.83;5.87;;;9.60;50.40;;;;;;19766;7081;124293;-76
2023/05/18 01:29:56;;;;;;;8.50;7.70;;;9.70;50.40;;;;;;20283;6826;337123;-76
2023/05/18 01:32:31;;;;;;;8.67;7.87;;;9.90;50.00;;;;;;20453;6808;283086;-76
2023/05/18 01:35:08;;;;;;;8.50;7.70;;;10.60;48.10;;;;;;20590;6764;281746;-76
2023/05/18 01:37:43;;;;;;;7.65;7.05;;;10.60;48.10;;;;;;20635;6751;277310;-76
2023/05/18 01:40:19;;;;;;;6.65;6.18;;;10.90;47.50;;;;;;20676;6732;305987;-76
2023/05/18 01:42:55;;;;;;;6.87;6.17;;;11.00;47.20;;;;;;20739;6717;297342;-76
2023/05/18 01:45:30;;;;;;;6.62;6.18;;;11.10;47.00;;;;;;20725;6717;333975;-76
2023/05/18 01:48:06;;;;;;;6.10;5.50;;;11.10;46.40;;;;;;20950;6716;116745;-76
2023/05/18 01:50:42;;;;;;;5.43;4.93;;;10.40;48.00;;;;;;20911;6716;116548;-76
2023/05/18 01:53:31;;;;;;;6.40;5.90;;;10.30;47.90;;;;;;20690;6726;275462;-76
2023/05/18 01:56:07;;;;;;;5.10;4.67;;;10.40;47.70;;;;;;20924;6726;116699;-76
2023/05/18 01:58:43;;;;;;;6.03;5.53;;;10.10;47.80;;;;;;20697;6726;305223;-76
2023/05/18 02:01:21;;;;;;;6.60;6.10;;;10.20;48.40;;;;;;20640;6736;278561;-78
2023/05/18 02:03:55;;;;;;;7.87;7.03;;;10.40;48.10;;;;;;20968;6712;116806;-78
2023/05/18 02:06:32;;;;;;;6.70;6.10;;;10.20;48.10;;;;;;20960;6717;117663;-77
2023/05/18 02:09:08;;;;;;;5.93;5.30;;;9.80;49.70;;;;;;20912;6728;117218;-77
2023/05/18 02:11:45;;;;;;;6.87;6.33;;;9.60;50.40;;;;;;20625;6713;306484;-76
2023/05/18 02:14:22;;;;;;;7.83;7.13;;;9.80;50.20;;;;;;20715;6713;309724;-76
2023/05/18 02:16:56;;;;;;;7.93;7.22;;;10.10;48.40;;;;;;20704;6713;334302;-77
2023/05/18 02:19:30;;;;;;;7.82;7.18;;;10.40;47.70;;;;;;20738;6713;276299;-77
2023/05/18 02:22:07;;;;;;;8.30;7.60;;;10.70;47.00;;;;;;20547;6714;280076;-77
2023/05/18 02:24:44;;;;;;;8.50;7.82;;;10.70;46.90;;;;;;20711;6719;309078;-77
2023/05/18 02:27:18;;;;;;;8.10;7.40;;;10.80;46.60;;;;;;20746;6702;278592;-77
2023/05/18 02:29:55;;;;;;;7.30;6.70;;;10.90;46.30;;;;;;20989;6702;117195;-77
2023/05/18 02:32:37;;;;;;;8.23;7.53;;;10.60;46.90;;;;;;20587;6702;276966;-77
2023/05/18 02:35:12;;;;;;;8.17;7.37;;;10.50;46.90;;;;;;20969;6702;116995;-76
2023/05/18 02:37:46;;;;;;;7.67;6.97;;;10.20;47.40;;;;;;20786;6702;338677;-76
2023/05/18 02:40:21;;;;;;;7.32;6.72;;;10.30;48.10;;;;;;20743;6710;275318;-76
2023/05/18 02:42:56;;;;;;;7.57;7.00;;;10.50;47.70;;;;;;20697;6729;306567;-76
2023/05/18 02:45:32;;;;;;;7.00;6.57;;;10.80;46.70;;;;;;20729;6713;309544;-76
2023/05/18 02:48:08;;;;;;;6.97;6.37;;;10.80;46.70;;;;;;20714;6728;305112;-75
2023/05/18 02:50:47;;;;;;;7.40;6.80;;;10.80;46.00;;;;;;20674;6728;277336;-76
2023/05/18 02:53:20;;;;;;;6.87;6.37;;;10.80;46.00;;;;;;20904;6728;117102;-76
2023/05/18 02:56:02;;;;;;;7.33;6.53;;;10.50;46.70;;;;;;20933;6729;116965;-77
2023/05/18 02:58:34;;;;;;;8.13;7.32;;;10.00;47.80;;;;;;20726;6720;338464;-77
2023/05/18 03:01:11;;;;;;;8.02;7.32;;;10.00;48.20;;;;;;20661;6716;282361;-77
2023/05/18 03:03:46;;;;;;;12.27;11.27;;;10.30;47.80;;;;;;20782;6706;304996;-77
2023/05/18 03:06:22;;;;;;;35.23;28.93;;;10.50;47.50;;;;;;20994;6706;117148;-77
2023/05/18 03:08:56;;;;;;;10.93;9.57;;;10.30;47.70;;;;;;21005;6702;117726;-77
2023/05/18 03:11:31;;;;;;;9.20;8.50;;;9.80;49.90;;;;;;20618;6716;282604;-77
2023/05/18 03:14:07;;;;;;;8.10;7.40;;;9.90;49.30;;;;;;20683;6732;306921;-77
2023/05/18 03:16:43;;;;;;;7.20;6.50;;;10.10;48.00;;;;;;20894;6721;117398;-78
2023/05/18 03:19:19;;;;;;;8.10;7.40;;;10.00;47.30;;;;;;20749;6705;305557;-77
2023/05/18 03:21:56;;;;;;;6.37;5.87;;;10.00;47.50;;;;;;20862;6705;116971;-77
2023/05/18 03:24:39;;;;;;;6.43;6.03;;;9.80;48.70;;;;;;20997;6705;116768;-77
2023/05/18 03:27:06;;;;;;;7.70;6.63;;;9.40;49.40;;;;;;20975;6705;123210;-77
2023/05/18 03:29:41;;;;;;;10.67;9.57;;;9.20;50.10;;;;;;20782;6705;305867;-77
2023/05/18 03:32:17;;;;;;;19.23;17.02;;;9.20;50.10;;;;;;20611;6705;306191;-77
2023/05/18 03:34:52;;;;;;;10.50;9.60;;;9.60;49.70;;;;;;20684;6734;307858;-77
2023/05/18 03:37:29;;;;;;;9.70;8.90;;;10.20;47.80;;;;;;20674;6733;280616;-76
2023/05/18 03:40:09;;;;;;;9.55;8.73;;;10.20;47.80;;;;;;20683;6727;277330;-77
2023/05/18 03:42:44;;;;;;;8.90;8.10;;;10.30;47.10;;;;;;20680;6748;275101;-77
2023/05/18 03:45:19;;;;;;;8.03;7.33;;;10.40;47.00;;;;;;20913;6738;121132;-77
2023/05/18 03:47:55;;;;;;;8.20;7.40;;;10.10;47.90;;;;;;20662;6742;311085;-77
2023/05/18 03:50:31;;;;;;;8.80;8.00;;;10.10;47.60;;;;;;20665;6735;277253;-77
2023/05/18 03:53:06;;;;;;;8.77;8.07;;;10.30;47.60;;;;;;20670;6735;276194;-77
2023/05/18 03:55:45;;;;;;;8.40;7.70;;;10.50;47.00;;;;;;20704;6730;304875;-77
2023/05/18 03:58:21;;;;;;;8.93;8.13;;;10.50;46.60;;;;;;20700;6727;304840;-77
2023/05/18 04:00:56;;;;;;;8.67;7.30;;;10.60;46.30;;;;;;20813;6745;116991;-76
2023/05/18 04:03:33;;;;;;;7.63;6.93;;;10.20;46.80;;;;;;20878;6738;117058;-77
2023/05/18 04:06:09;;;;;;;7.00;6.50;;;9.80;48.80;;;;;;20903;6730;117487;-77
2023/05/18 04:08:44;;;;;;;8.80;8.00;;;9.50;49.70;;;;;;20651;6745;281406;-77
2023/05/18 04:11:18;;;;;;;8.75;7.95;;;9.60;49.50;;;;;;20610;6720;307054;-77
2023/05/18 04:13:54;;;;;;;7.23;6.27;;;9.90;48.80;;;;;;20893;6735;116986;-77
2023/05/18 04:16:30;;;;;;;7.60;6.90;;;9.80;49.10;;;;;;20945;6725;120705;-77
2023/05/18 04:19:06;;;;;;;8.43;7.20;;;9.60;49.50;;;;;;20686;6725;310477;-77
2023/05/18 04:21:42;;;;;;;7.60;6.57;;;9.60;49.50;;;;;;20818;6725;117234;-77
2023/05/18 04:24:18;;;;;;;8.52;7.70;;;9.50;49.60;;;;;;20720;6723;303156;-77
2023/05/18 04:26:52;;;;;;;8.40;7.60;;;9.60;49.80;;;;;;20709;6727;276808;-77
2023/05/18 04:29:29;;;;;;;10.40;9.13;;;9.90;49.20;;;;;;20695;6727;276149;-77
2023/05/18 04:32:06;;;;;;;9.17;8.30;;;10.20;47.50;;;;;;20584;6724;310018;-77
2023/05/18 04:34:41;;;;;;;9.03;6.43;;;10.20;48.00;;;;;;20964;6715;122953;-76
2023/05/18 04:37:17;;;;;;;7.10;6.40;;;10.20;47.90;;;;;;20868;6733;117160;-76
2023/05/18 04:39:52;;;;;;;8.93;8.03;;;9.90;49.50;;;;;;20718;6741;305953;-76
2023/05/18 04:42:31;;;;;;;8.10;7.30;;;10.00;48.10;;;;;;20523;6735;302137;-76
2023/05/18 04:45:04;;;;;;;7.90;7.20;;;10.30;47.70;;;;;;20691;6726;314345;-77
2023/05/18 04:47:41;;;;;;;7.55;6.90;;;10.50;47.50;;;;;;20735;6720;276073;-76
2023/05/18 04:50:17;;;;;;;7.83;7.03;;;10.70;46.60;;;;;;20620;6752;281490;-76
2023/05/18 04:52:52;;;;;;;9.73;6.53;;;10.90;46.10;;;;;;20848;6750;117164;-78
2023/05/18 04:55:29;;;;;;;7.35;6.50;;;10.60;46.60;;;;;;20716;6720;275663;-77
2023/05/18 04:58:04;;;;;;;7.03;5.97;;;10.50;46.60;;;;;;20950;6720;116638;-76
2023/05/18 05:00:39;;;;;;;6.53;5.93;;;10.30;47.10;;;;;;20837;6740;120706;-76
2023/05/18 05:03:15;;;;;;;6.70;6.10;;;10.00;48.60;;;;;;20844;6745;117265;-75
2023/05/18 05:05:51;;;;;;;6.50;5.87;;;9.70;50.60;;;;;;20918;6724;116836;-76
2023/05/18 05:08:26;;;;;;;6.53;5.47;;;9.60;49.80;;;;;;20925;6724;117121;-76
2023/05/18 05:11:03;;;;;;;7.43;6.47;;;9.80;50.30;;;;;;20571;6741;336906;-76
2023/05/18 05:13:38;;;;;;;8.43;6.73;;;9.80;49.70;;;;;;20748;6723;305889;-79
2023/05/18 05:16:14;;;;;;;6.77;5.80;;;10.20;47.80;;;;;;20961;6723;116756;-76
2023/05/18 05:18:50;;;;;;;7.33;6.00;;;10.20;47.90;;;;;;20949;6768;116767;-76
2023/05/18 05:21:29;;;;;;;7.00;6.40;;;9.90;50.00;;;;;;20808;6744;125557;-78
2023/05/18 05:24:03;;;;;;;8.07;5.73;;;9.90;50.00;;;;;;20850;6748;117830;-76
2023/05/18 05:26:37;;;;;;;8.80;6.27;;;9.80;50.30;;;;;;20838;6745;116756;-76
2023/05/18 05:29:13;;;;;;;8.35;6.53;;;10.00;49.30;;;;;;20581;6760;340201;-76
2023/05/18 05:31:49;;;;;;;6.97;6.27;;;10.00;49.30;;;;;;20537;6745;308186;-76
2023/05/18 05:34:25;;;;;;;8.10;5.50;;;10.60;48.60;;;;;;20979;6708;116767;-75
2023/05/18 05:37:01;;;;;;;6.43;5.80;;;10.60;48.30;;;;;;20944;6713;117040;-76
2023/05/18 05:39:40;;;;;;;7.57;6.47;;;10.60;48.20;;;;;;20711;6728;305014;-77
2023/05/18 05:42:13;;;;;;;6.60;5.30;;;10.60;48.00;;;;;;20761;6728;117098;-76
2023/05/18 05:44:49;;;;;;;8.13;5.03;;;10.60;48.10;;;;;;20881;6738;116964;-76
2023/05/18 05:47:25;;;;;;;7.20;6.00;;;10.50;48.40;;;;;;20608;6738;306157;-77
2023/05/18 05:50:01;;;;;;;8.57;5.30;;;10.70;47.60;;;;;;20818;6769;117350;-79
2023/05/18 05:52:37;;;;;;;6.22;5.62;;;10.70;47.70;;;;;;20453;6814;336892;-79
2023/05/18 05:55:14;;;;;;;6.30;5.45;;;11.30;46.50;;;;;;20714;6724;309825;-77
2023/05/18 05:57:49;;;;;;;6.43;5.70;;;11.30;46.50;;;;;;20619;6758;278904;-79
2023/05/18 06:00:27;;;;;;;5.97;4.57;;;11.60;46.10;;;;;;20787;6754;116851;-78
2023/05/18 06:03:01;;;;;;;5.23;4.63;;;11.60;46.10;;;;;;20847;6748;117017;-78
2023/05/18 06:05:37;;;;;;;6.22;5.50;;;11.40;46.80;;;;;;20663;6742;336018;-79
2023/05/18 06:08:15;;;;;;;4.93;4.40;;;11.50;46.40;;;;;;20908;6730;116835;-79
2023/05/18 06:10:48;;;;;;;5.00;4.60;;;11.60;46.70;;;;;;20878;6728;116846;-78
2023/05/18 06:13:24;;;;;;;5.30;4.27;;;11.40;47.10;;;;;;20904;6728;116707;-82
2023/05/18 06:16:00;;;;;;;6.00;4.30;;;11.40;47.90;;;;;;20904;6742;122653;-77
2023/05/18 06:18:38;;;;;;;7.30;4.70;;;11.30;47.80;;;;;;20882;6728;117265;-79
2023/05/18 06:21:12;;;;;;;6.95;5.05;;;11.80;47.30;;;;;;20571;6742;324637;-79
2023/05/18 06:23:49;;;;;;;8.37;4.40;;;11.80;47.30;;;;;;20876;6743;117016;-80
2023/05/18 06:26:24;;;;;;;4.80;3.97;;;12.40;47.60;;;;;;20911;6737;117361;-80
2023/05/18 06:29:00;;;;;;;6.32;4.90;;;12.70;47.90;;;;;;20669;6737;293951;-80
2023/05/18 06:31:36;;;;;;;6.53;4.73;;;13.40;44.00;;;;;;20574;6737;290738;-85
2023/05/18 06:34:12;;;;;;;5.03;4.53;;;15.10;40.60;;;;;;20679;6740;281565;-79
2023/05/18 06:36:48;;;;;;;4.93;4.07;;;15.10;40.80;;;;;;20670;6741;306072;-80
2023/05/18 06:39:24;;;;;;;5.07;4.53;;;15.80;39.50;;;;;;20655;6741;334842;-81
2023/05/18 06:42:00;;;;;;;5.33;4.00;;;16.50;38.40;;;;;;20760;6741;117679;-79
2023/05/18 06:44:35;;;;;;;8.10;4.50;;;16.50;39.30;;;;;;20630;6756;305222;-79
2023/05/18 06:47:11;;;;;;;5.13;4.40;;;17.20;37.30;;;;;;20593;6761;287085;-79
2023/05/18 06:49:47;;;;;;;4.27;3.90;;;17.20;37.30;;;;;;20773;6776;116901;-81
2023/05/18 06:52:23;;;;;;;7.35;6.40;;;17.30;38.40;;;;;;20478;6756;279069;-82
2023/05/18 06:55:00;;;;;;;4.77;4.20;;;17.40;36.60;;;;;;20822;6756;116138;-78
2023/05/18 06:57:34;;;;;;;9.60;7.75;;;17.30;37.90;;;;;;20562;6787;307226;-78
2023/05/18 07:00:11;;;;;;;5.73;4.70;;;17.30;37.00;;;;;;20563;6773;277636;-76
2023/05/18 07:02:46;;;;;;;5.05;4.30;;;17.50;36.40;;;;;;20672;6738;339051;-75
2023/05/18 07:05:22;;;;;;;3.30;3.03;;;17.50;36.00;;;;;;20875;6738;116897;-74
2023/05/18 07:07:56;;;;;;;6.28;4.40;;;17.40;38.00;;;;;;20546;6753;337884;-74
2023/05/18 07:10:35;;;;;;;4.57;3.57;;;17.40;37.60;;;;;;20769;6753;117142;-75
2023/05/18 07:13:11;;;;;;;6.13;3.70;;;17.20;38.20;;;;;;20887;6738;126754;-75
2023/05/18 07:15:43;;;;;;;7.63;3.33;;;17.00;39.10;;;;;;20862;6743;117253;-75
2023/05/18 07:18:19;;;;;;;5.43;4.18;;;16.80;39.90;;;;;;20610;6738;309090;-75
2023/05/18 07:20:56;;;;;;;5.47;3.93;;;17.00;38.00;;;;;;20555;6738;278412;-78
2023/05/18 07:23:31;;;;;;;6.03;3.70;;;17.30;38.30;;;;;;20817;6738;116915;-76
2023/05/18 07:26:09;;;;;;;3.97;3.67;;;17.40;38.60;;;;;;20893;6723;116839;-76
2023/05/18 07:28:42;;;;;;;6.50;3.93;;;17.20;38.80;;;;;;20837;6738;116929;-76
2023/05/18 07:31:21;;;;;;;4.18;3.58;;;17.00;39.10;;;;;;20554;6723;316190;-76
2023/05/18 07:33:54;;;;;;;4.43;3.70;;;17.20;37.80;;;;;;20871;6738;116862;-77
2023/05/18 07:36:33;;;;;;;62.90;56.25;;;17.30;38.80;;;;;;20670;6743;276056;-77
2023/05/18 07:39:07;;;;;;;5.63;5.10;;;17.60;36.90;;;;;;20919;6723;117651;-83
2023/05/18 07:41:42;;;;;;;10.20;8.97;;;17.60;37.50;;;;;;20765;6739;117391;-78
2023/05/18 07:44:17;;;;;;;5.60;4.97;;;17.50;38.50;;;;;;20895;6737;116113;-78
2023/05/18 07:46:54;;;;;;;6.07;5.43;;;17.80;37.50;;;;;;20687;6728;309913;-76
2023/05/18 07:49:31;;;;;;;6.70;5.50;;;17.80;37.40;;;;;;20920;6723;117162;-77
2023/05/18 07:52:07;;;;;;;6.53;4.90;;;18.00;37.90;;;;;;20467;6745;308238;-78
2023/05/18 07:54:43;;;;;;;6.47;5.05;;;18.30;36.20;;;;;;20712;6730;305177;-77
2023/05/18 07:57:19;;;;;;;7.23;5.40;;;18.60;36.00;;;;;;20915;6730;116763;-78
2023/05/18 07:59:54;;;;;;;5.43;4.00;;;18.60;36.60;;;;;;20939;6730;116834;-77
2023/05/18 08:02:30;;;;;;;4.97;4.47;;;18.40;37.30;;;;;;20544;6730;278179;-78
2023/05/18 08:05:06;;;;;;;7.80;4.70;;;18.50;36.00;;;;;;20689;6730;307326;-76
2023/05/18 08:07:41;;;;;;;5.18;4.68;;;18.80;35.50;;;;;;20751;6715;334920;-78
2023/05/18 08:10:17;;;;;;;5.60;4.50;;;19.10;34.90;;;;;;20698;6715;290516;-75
2023/05/18 08:12:52;;;;;;;6.23;4.40;;;19.20;34.70;;;;;;20976;6715;116894;-74
2023/05/18 08:15:28;;;;;;;6.07;4.80;;;19.00;35.50;;;;;;20747;6715;309453;-75
2023/05/18 08:18:05;;;;;;;5.93;5.00;;;19.10;35.70;;;;;;20755;6715;333884;-75
2023/05/18 08:20:41;;;;;;;13.40;4.87;;;19.40;35.50;;;;;;20933;6715;116719;-82
2023/05/18 08:23:16;;;;;;;9.98;5.22;;;19.20;35.60;;;;;;20759;6715;279532;-75
2023/05/18 08:25:55;;;;;;;7.17;4.83;;;19.30;35.20;;;;;;20765;6715;305361;-75
2023/05/18 08:28:28;;;;;;;5.40;4.83;;;19.30;35.20;;;;;;20766;6715;309159;-75
2023/05/18 08:31:06;;;;;;;5.40;4.90;;;19.40;34.40;;;;;;20679;6715;308370;-75
2023/05/18 08:33:41;;;;;;;6.32;5.00;;;19.50;34.90;;;;;;20705;6734;319740;-75
2023/05/18 08:36:18;;;;;;;6.00;5.07;;;19.70;34.50;;;;;;20722;6730;276118;-75
2023/05/18 08:38:54;;;;;;;6.82;4.80;;;19.70;34.50;;;;;;20761;6713;334642;-75
2023/05/18 08:41:29;;;;;;;6.93;4.80;;;19.90;34.50;;;;;;20636;6717;278253;-75
2023/05/18 08:44:10;;;;;;;6.03;4.70;;;20.00;34.10;;;;;;20684;6732;276201;-73
2023/05/18 08:46:50;;;;;;;4.73;4.30;;;19.90;35.10;;;;;;20842;6752;117040;-75
2023/05/18 08:49:26;;;;;;;5.03;4.57;;;19.90;35.10;;;;;;20803;6745;116918;-75
2023/05/18 08:52:02;;;;;;;7.53;5.00;;;19.60;35.70;;;;;;20496;6744;308589;-75
2023/05/18 08:54:38;;;;;;;8.50;4.70;;;19.60;35.00;;;;;;20618;6759;311047;-76
2023/05/18 08:57:15;;;;;;;7.68;5.10;;;20.00;35.30;;;;;;20634;6745;306044;-76
2023/05/18 08:59:51;;;;;;;5.77;4.73;;;20.30;34.40;;;;;;20621;6759;306669;-75
2023/05/18 09:02:26;;;;;;;10.32;4.90;;;20.60;33.90;;;;;;20506;6739;308876;-75
2023/05/18 09:05:03;;;;;;;5.97;4.30;;;20.60;34.30;;;;;;20805;6753;117701;-73
2023/05/18 09:07:38;;;;;;;5.03;4.50;;;20.50;34.20;;;;;;20660;6741;305585;-74
2023/05/18 09:10:14;;;;;;;7.17;4.83;;;20.50;33.70;;;;;;20869;6741;120171;-75
2023/05/18 09:12:49;;;;;;;7.07;5.10;;;20.50;34.60;;;;;;20653;6741;311026;-73
2023/05/18 09:15:26;;;;;;;6.97;5.20;;;20.50;33.50;;;;;;20604;6754;308907;-74
2023/05/18 09:18:00;;;;;;;7.47;5.17;;;20.60;33.50;;;;;;20619;6754;277231;-76
2023/05/18 09:20:36;;;;;;;5.80;4.10;;;20.80;32.60;;;;;;20846;6740;116902;-73
2023/05/18 09:23:12;;;;;;;4.20;3.90;;;20.60;34.60;;;;;;20843;6742;120037;-76
2023/05/18 09:25:51;;;;;;;5.57;4.20;;;20.50;34.40;;;;;;20654;6745;277554;-71
2023/05/18 09:28:37;;;;;;;7.07;4.53;;;20.80;33.60;;;;;;20863;6745;116753;-73
2023/05/18 09:31:16;;;;;;;5.17;4.07;;;20.70;33.90;;;;;;20786;6730;118003;-73
2023/05/18 09:33:52;;;;;;;5.47;4.30;;;20.70;33.90;;;;;;20915;6730;116913;-73
2023/05/18 09:36:29;;;;;;;4.90;4.35;;;20.50;31.60;;;;;;20710;6725;276712;-72
2023/05/18 09:39:08;;;;;;;7.03;4.90;;;20.50;31.60;;;;;;20612;6745;306754;-74
2023/05/18 09:41:46;;;;;;;8.30;4.67;;;20.60;31.30;;;;;;20733;6745;118021;-75
2023/05/18 09:44:35;;;;;;;5.77;4.30;;;20.40;32.30;;;;;;20868;6790;118145;-71
2023/05/18 09:47:10;;;;;;;5.27;3.90;;;20.10;32.90;;;;;;20825;6738;117484;-70
2023/05/18 09:49:46;;;;;;;5.17;4.53;;;19.70;33.30;;;;;;20673;6738;305960;-73
2023/05/18 09:52:21;;;;;;;7.90;4.67;;;19.60;32.20;;;;;;20449;6763;298531;-74
2023/05/18 09:55:04;;;;;;;4.80;4.20;;;20.10;32.00;;;;;;20663;6742;278565;-73
2023/05/18 09:57:40;;;;;;;7.32;4.35;;;20.00;31.90;;;;;;20659;6742;307025;-76
2023/05/18 10:00:16;;;;;;;8.40;4.03;;;20.20;30.80;;;;;;20865;6742;117250;-71
2023/05/18 10:02:53;;;;;;;9.17;3.70;;;20.10;31.60;;;;;;20803;6764;121034;-71
2023/05/18 10:05:33;;;;;;;4.53;3.97;;;19.90;32.20;;;;;;20806;6758;119256;-73
2023/05/18 10:08:07;;;;;;;3.90;3.20;;;19.90;32.80;;;;;;20845;6750;117981;-74
2023/05/18 10:10:43;;;;;;;6.33;3.70;;;19.70;32.80;;;;;;20667;6793;120187;-74
2023/05/18 10:13:20;;;;;;;6.13;3.70;;;19.80;33.60;;;;;;20893;6734;117353;-72
2023/05/18 10:15:55;;;;;;;6.73;4.10;;;19.70;33.50;;;;;;20720;6728;305447;-72
2023/05/18 10:18:35;;;;;;;5.15;3.70;;;20.10;31.50;;;;;;20622;6745;329814;-73
2023/05/18 10:21:13;;;;;;;5.43;3.60;;;20.50;31.60;;;;;;20729;6760;117405;-72
2023/05/18 10:23:47;;;;;;;5.27;3.67;;;20.50;31.40;;;;;;20633;6751;299018;-73
2023/05/18 10:26:23;;;;;;;5.23;3.70;;;20.60;30.70;;;;;;20851;6752;116907;-73
2023/05/18 10:28:59;;;;;;;4.57;3.60;;;20.70;31.40;;;;;;20848;6752;117467;-76
2023/05/18 10:31:38;;;;;;;5.60;3.87;;;20.60;31.40;;;;;;20713;6752;116894;-74
2023/05/18 10:34:10;;;;;;;4.70;3.20;;;20.50;31.60;;;;;;20844;6753;116947;-73
2023/05/18 10:36:45;;;;;;;7.27;4.07;;;20.40;32.00;;;;;;20629;6753;307651;-73
2023/05/18 10:39:21;;;;;;;4.10;3.13;;;20.50;30.00;;;;;;20827;6753;116958;-74
2023/05/18 10:41:57;;;;;;;6.70;4.30;;;20.50;30.50;;;;;;20700;6764;117080;-73
2023/05/18 10:44:32;;;;;;;4.20;3.17;;;20.40;31.30;;;;;;20834;6764;116945;-78
2023/05/18 10:47:10;;;;;;;5.22;3.58;;;20.30;31.80;;;;;;20569;6764;277204;-76
2023/05/18 10:49:43;;;;;;;6.43;3.87;;;20.50;31.00;;;;;;20799;6764;117964;-73
2023/05/18 10:52:19;;;;;;;7.20;3.07;;;20.70;31.50;;;;;;20728;6751;117640;-75
2023/05/18 10:54:55;;;;;;;5.87;3.23;;;20.60;31.40;;;;;;20853;6741;118871;-73
2023/05/18 10:57:34;;;;;;;6.77;3.40;;;20.50;31.50;;;;;;20867;6741;117873;-72
2023/05/18 11:00:09;;;;;;;6.00;3.03;;;20.40;32.00;;;;;;20818;6760;116920;-76
2023/05/18 11:02:45;;;;;;;3.60;3.07;;;20.40;32.20;;;;;;20804;6766;116944;-73
2023/05/18 11:05:25;;;;;;;4.83;3.40;;;20.60;30.70;;;;;;20615;6751;275883;-73
2023/05/18 11:08:02;;;;;;;5.57;3.30;;;20.60;30.70;;;;;;20668;6754;339339;-74
2023/05/18 11:10:43;;;;;;;5.43;3.43;;;21.00;30.00;;;;;;20829;6748;117234;-72
2023/05/18 11:13:18;;;;;;;5.33;3.27;;;21.20;30.60;;;;;;20843;6746;117594;-72
2023/05/18 11:15:54;;;;;;;5.40;3.72;;;21.00;31.20;;;;;;20647;6746;305102;-72
2023/05/18 11:18:34;;;;;;;4.87;3.10;;;21.20;30.30;;;;;;20875;6745;117151;-73
2023/05/18 11:21:22;;;;;;;5.93;2.90;;;21.10;30.20;;;;;;20764;6748;117855;-75
2023/05/18 11:24:21;;;;;;;4.13;2.93;;;21.00;30.70;;;;;;20842;6754;116714;-74
2023/05/18 11:27:02;;;;;;;6.63;3.00;;;20.80;30.80;;;;;;20835;6754;120822;-73
2023/05/18 11:29:36;;;;;;;5.57;3.63;;;20.60;31.40;;;;;;20628;6795;305623;-73
2023/05/18 11:32:22;;;;;;;3.33;2.90;;;20.80;30.80;;;;;;20728;6739;123187;-73
2023/05/18 11:34:59;;;;;;;6.73;3.50;;;21.00;29.80;;;;;;20646;6799;276401;-73
2023/05/18 11:37:38;;;;;;;4.70;3.03;;;21.00;29.60;;;;;;20855;6743;116868;-74
2023/05/18 11:40:43;;;;;;;3.73;3.33;;;21.10;30.60;;;;;;20883;6734;117799;-73
2023/05/18 11:43:22;;;;;;;5.07;3.43;;;21.10;31.00;;;;;;20575;6758;293469;-73
2023/05/18 11:45:57;;;;;;;5.60;3.33;;;21.40;29.90;;;;;;20643;6766;276513;-74
2023/05/18 11:48:33;;;;;;;5.93;3.80;;;21.70;28.60;;;;;;20588;6769;277658;-74
2023/05/18 11:51:10;;;;;;;5.23;3.53;;;22.00;29.70;;;;;;20586;6739;279733;-74
2023/05/18 11:53:44;;;;;;;5.53;3.30;;;22.30;29.60;;;;;;20823;6755;117098;-73
2023/05/18 11:56:20;;;;;;;13.67;3.90;;;22.20;29.80;;;;;;20612;6754;309053;-74
2023/05/18 11:59:12;;;;;;;4.20;3.00;;;22.20;28.90;;;;;;20852;6751;117285;-74
2023/05/18 12:01:47;;;;;;;7.68;3.72;;;22.00;29.60;;;;;;20511;6749;297296;-74
2023/05/18 12:04:23;;;;;;;3.53;3.23;;;22.00;29.60;;;;;;20861;6749;116929;-73
2023/05/18 12:06:58;;;;;;;7.87;3.20;;;22.00;30.10;;;;;;20853;6751;118200;-74
2023/05/18 12:09:34;;;;;;;5.43;3.20;;;21.70;30.50;;;;;;20617;6756;307121;-74
2023/05/18 12:12:15;;;;;;;3.95;3.22;;;21.80;29.10;;;;;;20496;6751;343627;-74
2023/05/18 12:14:45;;;;;;;4.23;3.83;;;22.10;29.30;;;;;;20845;6756;120711;-73
2023/05/18 12:17:26;;;;;;;3.97;3.20;;;21.90;29.80;;;;;;20497;6754;307074;-74
2023/05/18 12:19:56;;;;;;;5.00;3.40;;;21.90;29.60;;;;;;20780;6756;117080;-74
2023/05/18 12:22:32;;;;;;;5.17;3.40;;;22.00;29.60;;;;;;20469;6796;312811;-74
2023/05/18 12:25:08;;;;;;;6.73;3.40;;;21.90;29.50;;;;;;20776;6758;117215;-73
2023/05/18 12:27:48;;;;;;;4.97;3.40;;;21.90;30.00;;;;;;20595;6758;282126;-74
2023/05/18 12:30:24;;;;;;;4.20;3.30;;;22.00;29.00;;;;;;20825;6757;117447;-75
2023/05/18 12:33:01;;;;;;;4.53;3.13;;;21.90;29.90;;;;;;20743;6773;117204;-75
2023/05/18 12:35:36;;;;;;;5.07;3.17;;;21.60;29.30;;;;;;20522;6773;311583;-74
2023/05/18 12:38:11;;;;;;;4.23;3.27;;;21.60;29.30;;;;;;20601;6731;276654;-74
2023/05/18 12:40:49;;;;;;;5.72;3.33;;;21.80;28.80;;;;;;20613;6740;338647;-74
2023/05/18 12:43:23;;;;;;;4.73;3.50;;;22.00;29.00;;;;;;20688;6726;300580;-74
2023/05/18 12:45:58;;;;;;;6.27;3.00;;;22.10;28.60;;;;;;20884;6740;117440;-74
2023/05/18 12:48:36;;;;;;;4.30;2.90;;;21.90;29.30;;;;;;20825;6755;117144;-74
2023/05/18 12:51:19;;;;;;;3.90;2.90;;;21.60;29.80;;;;;;20558;6741;296319;-74
2023/05/18 12:53:55;;;;;;;4.57;2.90;;;21.40;29.60;;;;;;20892;6736;116890;-74
2023/05/18 12:56:50;;;;;;;6.60;3.50;;;21.40;29.60;;;;;;20882;6736;116852;-74
2023/05/18 12:59:23;;;;;;;3.10;2.73;;;21.20;30.10;;;;;;20415;6789;120802;-74
2023/05/18 13:01:58;;;;;;;5.20;3.23;;;21.10;30.70;;;;;;20532;6748;307616;-75
2023/05/18 13:04:34;;;;;;;4.80;3.30;;;21.20;30.40;;;;;;20636;6748;339642;-75
2023/05/18 13:07:10;;;;;;;4.37;3.00;;;21.70;29.10;;;;;;20566;6763;308086;-75
2023/05/18 13:09:47;;;;;;;4.93;3.07;;;21.70;29.10;;;;;;20848;6748;117350;-73
2023/05/18 13:12:35;;;;;;;4.83;3.30;;;21.50;29.60;;;;;;20485;6742;308945;-74
2023/05/18 13:15:20;;;;;;;3.40;2.50;;;21.40;28.90;;;;;;20882;6728;117179;-74
2023/05/18 13:17:59;;;;;;;3.97;2.97;;;21.20;29.60;;;;;;20865;6742;117213;-74
2023/05/18 13:20:37;;;;;;;6.20;3.27;;;20.80;30.00;;;;;;20580;6748;313303;-74
2023/05/18 13:23:13;;;;;;;5.17;2.77;;;20.80;30.00;;;;;;20615;6763;277325;-74
2023/05/18 13:25:49;;;;;;;7.90;4.50;;;21.00;29.50;;;;;;20690;6731;310113;-74